TimeEDT,TemperatureF,Dew PointF,Humidity,Sea Level PressureIn,VisibilityMPH,Wind Direction,Wind SpeedMPH,Gust SpeedMPH,PrecipitationIn,Events,Conditions,WindDirDegrees,DateUTC
12:52 AM,44.1,37.0,76,29.49,10.0,SW,5.8,-,N/A,,Overcast,220,2012-10-31 04:52:00
1:52 AM,42.1,36.0,79,29.50,10.0,SW,3.5,-,N/A,,Scattered Clouds,220,2012-10-31 05:52:00
2:52 AM,43.0,36.0,76,29.52,10.0,South,4.6,-,N/A,,Overcast,180,2012-10-31 06:52:00
3:52 AM,43.0,37.0,80,29.52,10.0,South,3.5,-,N/A,,Overcast,190,2012-10-31 07:52:00
4:52 AM,44.1,37.0,76,29.53,10.0,SSW,4.6,-,N/A,,Overcast,200,2012-10-31 08:52:00
5:05 AM,44.6,37.4,76,29.53,10.0,SSW,5.8,-,N/A,,Overcast,210,2012-10-31 09:05:00
5:52 AM,44.1,37.0,76,29.55,10.0,South,4.6,-,N/A,,Overcast,190,2012-10-31 09:52:00
6:52 AM,44.1,37.0,76,29.56,10.0,Calm,Calm,-,N/A,,Mostly Cloudy,0,2012-10-31 10:52:00
7:52 AM,43.0,36.0,76,29.57,10.0,SSW,5.8,-,N/A,,Mostly Cloudy,200,2012-10-31 11:52:00
8:52 AM,45.0,37.0,74,29.59,10.0,SSW,9.2,-,N/A,,Mostly Cloudy,210,2012-10-31 12:52:00
9:52 AM,46.9,37.9,71,29.60,10.0,WSW,11.5,-,N/A,,Mostly Cloudy,240,2012-10-31 13:52:00
10:52 AM,51.1,37.9,61,29.59,10.0,WSW,10.4,-,N/A,,Mostly Cloudy,240,2012-10-31 14:52:00
11:52 AM,52.0,36.0,54,29.58,10.0,West,11.5,-,N/A,,Mostly Cloudy,260,2012-10-31 15:52:00
12:52 PM,54.0,37.0,53,29.58,10.0,WSW,10.4,-,N/A,,Mostly Cloudy,250,2012-10-31 16:52:00
1:52 PM,53.1,36.0,52,29.58,10.0,WSW,13.8,-,N/A,,Mostly Cloudy,240,2012-10-31 17:52:00
2:52 PM,53.1,39.0,59,29.57,10.0,West,13.8,-,N/A,,Mostly Cloudy,260,2012-10-31 18:52:00
3:52 PM,53.1,39.0,59,29.59,10.0,WSW,11.5,-,N/A,,Mostly Cloudy,240,2012-10-31 19:52:00
4:52 PM,52.0,37.0,57,29.60,10.0,WSW,11.5,-,N/A,,Mostly Cloudy,250,2012-10-31 20:52:00
5:52 PM,50.0,39.0,66,29.61,10.0,SW,6.9,-,N/A,,Mostly Cloudy,230,2012-10-31 21:52:00
6:52 PM,48.0,39.0,71,29.62,10.0,SSW,4.6,-,N/A,,Mostly Cloudy,210,2012-10-31 22:52:00
7:52 PM,46.9,39.0,74,29.64,10.0,SSW,3.5,-,N/A,,Mostly Cloudy,210,2012-10-31 23:52:00
8:52 PM,46.0,39.0,76,29.65,10.0,Calm,Calm,-,N/A,,Mostly Cloudy,0,2012-11-01 00:52:00
9:52 PM,46.9,39.0,74,29.65,10.0,South,3.5,-,N/A,,Mostly Cloudy,190,2012-11-01 01:52:00
10:52 PM,44.1,39.0,82,29.65,10.0,SW,3.5,-,N/A,,Mostly Cloudy,220,2012-11-01 02:52:00
11:52 PM,46.0,39.0,76,29.66,10.0,SW,6.9,-,N/A,,Overcast,230,2012-11-01 03:52:00